Time,TemperatureF,DewpointF,PressureIn,WindDirection,WindDirectionDegrees,WindSpeedMPH,WindSpeedGustMPH,Humidity,HourlyPrecipIn,Conditions,Clouds,dailyrainin,SoftwareType,DateUTC
2013-11-13 00:09:00,18.0,12.0,30.59,SW,219,3.0,6.0,77,0.00,,,0.00,weatherlink.com 1.10,2013-11-13 06:09:00,
2013-11-13 00:24:00,18.1,12.0,30.59,SW,231,3.0,6.0,76,0.00,,,0.00,weatherlink.com 1.10,2013-11-13 06:24:00,
2013-11-13 00:39:00,18.1,12.0,30.58,SW,222,1.0,6.0,76,0.00,,,0.00,weatherlink.com 1.10,2013-11-13 06:39:00,
2013-11-13 00:54:00,18.1,12.0,30.58,SW,221,4.0,8.0,76,0.00,,,0.00,weatherlink.com 1.10,2013-11-13 06:54:00,
2013-11-13 01:09:00,17.9,12.0,30.57,SW,230,4.0,7.0,76,0.00,,,0.00,weatherlink.com 1.10,2013-11-13 07:09:00,
2013-11-13 01:25:00,17.6,12.0,30.57,SSW,205,2.0,7.0,77,0.00,,,0.00,weatherlink.com 1.10,2013-11-13 07:25:00,
2013-11-13 01:40:00,17.3,12.0,30.56,SSW,203,1.0,6.0,78,0.00,,,0.00,weatherlink.com 1.10,2013-11-13 07:40:00,
2013-11-13 01:55:00,16.9,11.0,30.56,SSW,206,3.0,6.0,79,0.00,,,0.00,weatherlink.com 1.10,2013-11-13 07:55:00,
2013-11-13 02:10:00,17.1,12.0,30.55,SW,225,5.0,8.0,79,0.00,,,0.00,weatherlink.com 1.10,2013-11-13 08:10:00,
2013-11-13 02:25:00,17.5,12.0,30.54,SW,217,3.0,9.0,79,0.00,,,0.00,weatherlink.com 1.10,2013-11-13 08:25:00,
2013-11-13 02:40:00,17.8,12.0,30.53,South,184,2.0,9.0,79,0.00,,,0.00,weatherlink.com 1.10,2013-11-13 08:40:00,
2013-11-13 02:55:00,17.9,12.0,30.52,SW,220,4.0,6.0,79,0.00,,,0.00,weatherlink.com 1.10,2013-11-13 08:55:00,
2013-11-13 03:10:00,17.9,12.0,30.51,SSE,158,3.0,7.0,79,0.00,,,0.00,weatherlink.com 1.10,2013-11-13 09:10:00,
2013-11-13 03:25:00,18.1,12.0,30.50,SSW,195,2.0,9.0,78,0.00,,,0.00,weatherlink.com 1.10,2013-11-13 09:25:00,
2013-11-13 03:40:00,18.5,12.0,30.50,SSW,200,4.0,10.0,77,0.00,,,0.00,weatherlink.com 1.10,2013-11-13 09:40:00,
2013-11-13 03:55:00,18.4,13.0,30.49,SW,216,4.0,9.0,78,0.00,,,0.00,weatherlink.com 1.10,2013-11-13 09:55:00,
2013-11-13 04:10:00,18.7,13.0,30.48,South,169,5.0,10.0,78,0.00,,,0.00,weatherlink.com 1.10,2013-11-13 10:10:00,
2013-11-13 04:25:00,18.8,13.0,30.46,SW,217,4.0,8.0,78,0.00,,,0.00,weatherlink.com 1.10,2013-11-13 10:25:00,
2013-11-13 04:40:00,19.0,13.0,30.46,SSW,196,5.0,10.0,78,0.00,,,0.00,weatherlink.com 1.10,2013-11-13 10:40:00,
2013-11-13 04:55:00,19.1,13.0,30.45,SW,224,3.0,11.0,78,0.00,,,0.00,weatherlink.com 1.10,2013-11-13 10:55:00,
2013-11-13 05:10:00,19.3,14.0,30.44,South,178,5.0,12.0,78,0.00,,,0.00,weatherlink.com 1.10,2013-11-13 11:10:00,
2013-11-13 05:25:00,19.4,14.0,30.42,SW,218,5.0,12.0,78,0.00,,,0.00,weatherlink.com 1.10,2013-11-13 11:25:00,
2013-11-13 05:40:00,19.6,14.0,30.42,SW,215,5.0,10.0,78,0.00,,,0.00,weatherlink.com 1.10,2013-11-13 11:40:00,
2013-11-13 05:55:00,19.9,14.0,30.41,SSW,205,6.0,11.0,77,0.00,,,0.00,weatherlink.com 1.10,2013-11-13 11:55:00,
2013-11-13 06:10:00,20.0,14.0,30.40,SSW,202,3.0,12.0,77,0.00,,,0.00,weatherlink.com 1.10,2013-11-13 12:10:00,
2013-11-13 06:25:00,19.9,14.0,30.39,SSW,210,3.0,12.0,77,0.00,,,0.00,weatherlink.com 1.10,2013-11-13 12:25:00,
2013-11-13 06:40:00,20.0,14.0,30.39,SSW,205,3.0,10.0,78,0.00,,,0.00,weatherlink.com 1.10,2013-11-13 12:40:00,
2013-11-13 06:55:00,20.3,14.0,30.39,SSW,207,4.0,13.0,77,0.00,,,0.00,weatherlink.com 1.10,2013-11-13 12:55:00,
2013-11-13 07:11:00,20.5,14.0,30.38,SSW,198,4.0,12.0,77,0.00,,,0.00,weatherlink.com 1.10,2013-11-13 13:11:00,
2013-11-13 07:26:00,21.1,15.0,30.37,SSE,150,9.0,13.0,76,0.00,,,0.00,weatherlink.com 1.10,2013-11-13 13:26:00,
2013-11-13 07:41:00,22.3,16.0,30.36,South,182,8.0,14.0,75,0.00,,,0.00,weatherlink.com 1.10,2013-11-13 13:41:00,
2013-11-13 07:56:00,23.1,16.0,30.35,SSW,199,5.0,14.0,74,0.00,,,0.00,weatherlink.com 1.10,2013-11-13 13:56:00,
2013-11-13 08:11:00,24.1,17.0,30.35,SW,215,7.0,14.0,73,0.00,,,0.00,weatherlink.com 1.10,2013-11-13 14:11:00,
2013-11-13 08:26:00,25.3,17.0,30.35,SSW,205,5.0,14.0,72,0.00,,,0.00,weatherlink.com 1.10,2013-11-13 14:26:00,
2013-11-13 08:41:00,26.3,18.0,30.35,SW,215,14.0,17.0,71,0.00,,,0.00,weatherlink.com 1.10,2013-11-13 14:41:00,
2013-11-13 08:56:00,27.5,19.0,30.34,WSW,243,11.0,18.0,70,0.00,,,0.00,weatherlink.com 1.10,2013-11-13 14:56:00,
2013-11-13 09:11:00,28.7,19.0,30.32,SW,221,15.0,22.0,68,0.00,,,0.00,weatherlink.com 1.10,2013-11-13 15:11:00,
2013-11-13 09:26:00,29.8,21.0,30.31,SW,214,13.0,23.0,69,0.00,,,0.00,weatherlink.com 1.10,2013-11-13 15:26:00,
2013-11-13 09:41:00,31.2,21.0,30.30,WSW,248,9.0,21.0,67,0.00,,,0.00,weatherlink.com 1.10,2013-11-13 15:41:00,
2013-11-13 09:56:00,32.5,23.0,30.29,SW,236,9.0,23.0,67,0.00,,,0.00,weatherlink.com 1.10,2013-11-13 15:56:00,
2013-11-13 10:11:00,33.7,24.0,30.29,SW,216,8.0,19.0,67,0.00,,,0.00,weatherlink.com 1.10,2013-11-13 16:11:00,
2013-11-13 10:26:00,34.6,25.0,30.29,South,191,3.0,23.0,67,0.00,,,0.00,weatherlink.com 1.10,2013-11-13 16:26:00,
2013-11-13 10:41:00,35.8,25.0,30.27,South,187,6.0,19.0,66,0.00,,,0.00,weatherlink.com 1.10,2013-11-13 16:41:00,
2013-11-13 10:56:00,37.1,26.0,30.26,SSW,195,8.0,17.0,65,0.00,,,0.00,weatherlink.com 1.10,2013-11-13 16:56:00,
2013-11-13 11:12:00,38.6,28.0,30.25,WSW,241,7.0,23.0,65,0.00,,,0.00,weatherlink.com 1.10,2013-11-13 17:12:00,
2013-11-13 11:27:00,40.2,29.0,30.25,South,189,10.0,19.0,64,0.00,,,0.00,weatherlink.com 1.10,2013-11-13 17:27:00,
2013-11-13 11:42:00,41.3,29.0,30.23,South,184,9.0,22.0,62,0.00,,,0.00,weatherlink.com 1.10,2013-11-13 17:42:00,
2013-11-13 11:57:00,42.9,30.0,30.23,South,183,14.0,21.0,61,0.00,,,0.00,weatherlink.com 1.10,2013-11-13 17:57:00,
2013-11-13 12:12:00,44.5,31.0,30.21,SSE,167,9.0,24.0,60,0.00,,,0.00,weatherlink.com 1.10,2013-11-13 18:12:00,
2013-11-13 12:27:00,46.0,32.0,30.20,SSW,193,8.0,21.0,58,0.00,,,0.00,weatherlink.com 1.10,2013-11-13 18:27:00,
2013-11-13 12:42:00,47.1,32.0,30.19,SW,233,12.0,23.0,56,0.00,,,0.00,weatherlink.com 1.10,2013-11-13 18:42:00,
2013-11-13 12:57:00,47.6,32.0,30.18,SW,229,8.0,27.0,55,0.00,,,0.00,weatherlink.com 1.10,2013-11-13 18:57:00,
2013-11-13 13:12:00,48.3,32.0,30.18,SSW,211,12.0,23.0,54,0.00,,,0.00,weatherlink.com 1.10,2013-11-13 19:12:00,
2013-11-13 13:27:00,48.8,32.0,30.16,SSW,196,14.0,25.0,52,0.00,,,0.00,weatherlink.com 1.10,2013-11-13 19:27:00,
2013-11-13 13:42:00,49.2,32.0,30.15,SSW,205,14.0,23.0,51,0.00,,,0.00,weatherlink.com 1.10,2013-11-13 19:42:00,
2013-11-13 13:57:00,49.4,31.0,30.15,South,177,9.0,24.0,50,0.00,,,0.00,weatherlink.com 1.10,2013-11-13 19:57:00,
2013-11-13 14:12:00,49.9,32.0,30.14,SSW,203,14.0,22.0,50,0.00,,,0.00,weatherlink.com 1.10,2013-11-13 20:12:00,
2013-11-13 14:27:00,50.0,31.0,30.13,WSW,249,9.0,19.0,49,0.00,,,0.00,weatherlink.com 1.10,2013-11-13 20:27:00,
2013-11-13 14:42:00,50.1,31.0,30.12,SSW,207,12.0,23.0,49,0.00,,,0.00,weatherlink.com 1.10,2013-11-13 20:42:00,
2013-11-13 14:57:00,50.2,32.0,30.12,South,179,7.0,19.0,50,0.00,,,0.00,weatherlink.com 1.10,2013-11-13 20:57:00,
2013-11-13 15:12:00,50.0,31.0,30.11,WSW,238,16.0,21.0,49,0.00,,,0.00,weatherlink.com 1.10,2013-11-13 21:12:00,
2013-11-13 15:27:00,49.6,32.0,30.11,SW,222,8.0,19.0,51,0.00,,,0.00,weatherlink.com 1.10,2013-11-13 21:27:00,
2013-11-13 15:43:00,48.9,31.0,30.10,SSW,208,16.0,20.0,51,0.00,,,0.00,weatherlink.com 1.10,2013-11-13 21:43:00,
2013-11-13 15:58:00,48.4,31.0,30.10,SW,232,11.0,17.0,52,0.00,,,0.00,weatherlink.com 1.10,2013-11-13 21:58:00,
2013-11-13 16:13:00,47.6,31.0,30.10,SW,219,8.0,18.0,52,0.00,,,0.00,weatherlink.com 1.10,2013-11-13 22:13:00,
2013-11-13 16:28:00,46.5,30.0,30.09,SW,236,10.0,15.0,54,0.00,,,0.00,weatherlink.com 1.10,2013-11-13 22:28:00,
2013-11-13 16:43:00,45.2,30.0,30.09,SSE,163,7.0,16.0,55,0.00,,,0.00,weatherlink.com 1.10,2013-11-13 22:43:00,
2013-11-13 16:58:00,43.6,30.0,30.08,SSW,212,6.0,14.0,58,0.00,,,0.00,weatherlink.com 1.10,2013-11-13 22:58:00,
2013-11-13 17:13:00,42.5,29.0,30.09,SW,222,5.0,14.0,60,0.00,,,0.00,weatherlink.com 1.10,2013-11-13 23:13:00,
2013-11-13 17:28:00,42.0,29.0,30.09,SSW,205,8.0,16.0,60,0.00,,,0.00,weatherlink.com 1.10,2013-11-13 23:28:00,
2013-11-13 17:43:00,41.1,28.0,30.09,SW,229,3.0,13.0,61,0.00,,,0.00,weatherlink.com 1.10,2013-11-13 23:43:00,
2013-11-13 17:58:00,39.6,28.0,30.09,SW,222,2.0,8.0,64,0.00,,,0.00,weatherlink.com 1.10,2013-11-13 23:58:00,
2013-11-13 18:14:00,38.5,28.0,30.09,SSW,204,6.0,10.0,66,0.00,,,0.00,weatherlink.com 1.10,2013-11-14 00:14:00,
2013-11-13 18:28:00,37.9,28.0,30.09,South,188,4.0,11.0,68,0.00,,,0.00,weatherlink.com 1.10,2013-11-14 00:28:00,
2013-11-13 18:43:00,37.8,28.0,30.08,South,189,4.0,11.0,67,0.00,,,0.00,weatherlink.com 1.10,2013-11-14 00:43:00,
2013-11-13 18:58:00,37.6,28.0,30.08,SSW,212,3.0,11.0,68,0.00,,,0.00,weatherlink.com 1.10,2013-11-14 00:58:00,
2013-11-13 19:13:00,36.7,27.0,30.07,SW,218,6.0,10.0,69,0.00,,,0.00,weatherlink.com 1.10,2013-11-14 01:13:00,
2013-11-13 19:28:00,37.0,27.0,30.07,SSW,203,3.0,13.0,68,0.00,,,0.00,weatherlink.com 1.10,2013-11-14 01:28:00,
2013-11-13 19:43:00,36.5,27.0,30.07,SW,221,6.0,11.0,69,0.00,,,0.00,weatherlink.com 1.10,2013-11-14 01:43:00,
2013-11-13 19:58:00,35.4,27.0,30.06,SSW,192,4.0,10.0,72,0.00,,,0.00,weatherlink.com 1.10,2013-11-14 01:58:00,
2013-11-13 20:13:00,35.5,27.0,30.06,South,186,4.0,12.0,71,0.00,,,0.00,weatherlink.com 1.10,2013-11-14 02:13:00,
2013-11-13 20:28:00,35.9,27.0,30.05,SSW,206,8.0,14.0,69,0.00,,,0.00,weatherlink.com 1.10,2013-11-14 02:28:00,
2013-11-13 20:43:00,35.6,27.0,30.05,SSW,200,6.0,15.0,70,0.00,,,0.00,weatherlink.com 1.10,2013-11-14 02:43:00,
2013-11-13 20:58:00,35.3,26.0,30.05,SW,224,14.0,14.0,70,0.00,,,0.00,weatherlink.com 1.10,2013-11-14 02:58:00,
2013-11-13 21:13:00,34.9,26.0,30.04,SSW,201,7.0,15.0,71,0.00,,,0.00,weatherlink.com 1.10,2013-11-14 03:13:00,
2013-11-13 21:28:00,34.5,26.0,30.04,SSW,211,6.0,13.0,72,0.00,,,0.00,weatherlink.com 1.10,2013-11-14 03:28:00,
2013-11-13 21:43:00,33.8,26.0,30.03,SSW,209,6.0,8.0,74,0.00,,,0.00,weatherlink.com 1.10,2013-11-14 03:43:00,
2013-11-13 21:58:00,33.1,26.0,30.03,South,191,5.0,9.0,75,0.00,,,0.00,weatherlink.com 1.10,2013-11-14 03:58:00,
2013-11-13 22:13:00,33.1,26.0,30.02,SE,136,1.0,11.0,75,0.00,,,0.00,weatherlink.com 1.10,2013-11-14 04:13:00,
2013-11-13 22:28:00,32.8,26.0,30.01,SSE,160,7.0,9.0,75,0.00,,,0.00,weatherlink.com 1.10,2013-11-14 04:28:00,
2013-11-13 22:43:00,32.5,26.0,30.01,SW,214,5.0,11.0,76,0.00,,,0.00,weatherlink.com 1.10,2013-11-14 04:43:00,
2013-11-13 22:58:00,32.3,26.0,30.02,SW,218,4.0,7.0,76,0.00,,,0.00,weatherlink.com 1.10,2013-11-14 04:58:00,
2013-11-13 23:13:00,32.1,25.0,30.02,SSW,212,1.0,7.0,76,0.00,,,0.00,weatherlink.com 1.10,2013-11-14 05:13:00,
2013-11-13 23:28:00,31.5,25.0,30.01,SW,224,5.0,5.0,77,0.00,,,0.00,weatherlink.com 1.10,2013-11-14 05:28:00,
2013-11-13 23:43:00,31.2,25.0,30.00,SSW,193,2.0,7.0,78,0.00,,,0.00,weatherlink.com 1.10,2013-11-14 05:43:00,
2013-11-13 23:58:00,30.9,25.0,30.00,SSW,204,2.0,8.0,78,0.00,,,0.00,weatherlink.com 1.10,2013-11-14 05:58:00,